Observations de surface / UK / EGGD

Québec | Canada | États-Unis | France | UK | Europe | Ailleurs

Affichage: Infos & localisation pour EGGD | Aide pour décoder les METARs

EGGD BRISTOL/LULSGATE -- UK
Raw surface observations for station EGGD
EGGD 211720Z AUTO 10007KT 9999 OVC032 01/M03 Q1024=
EGGD 211650Z AUTO 10008KT 9999 OVC033 01/M03 Q1024=
EGGD 211620Z AUTO 09007KT 9999 BKN034 00/M03 Q1024=
EGGD 211550Z AUTO 10007KT 9999 SCT031 01/M03 Q1024=
EGGD 211520Z AUTO 10008KT 9999 NCD 01/M03 Q1024=
EGGD 211450Z AUTO 10009KT 9999 NCD 02/M03 Q1024=
EGGD 211420Z AUTO 09009KT 9999 NCD 02/M02 Q1024=
EGGD 211350Z AUTO 09010KT 9999 NCD 02/M02 Q1025=
EGGD 211320Z AUTO 09010KT 9999 NCD 01/M02 Q1025=
EGGD 211250Z AUTO 09008KT 9999 NCD 01/M02 Q1025=
EGGD 211220Z 08008KT 9999 VCFG NSC 01/M02 Q1026=
EGGD 211150Z 08007KT 9999 VCFG NSC M00/M01 Q1026=
EGGD 211120Z 08008KT 8000 VCFG NSC M01/M02 Q1026=
EGGD 211050Z 07007KT 7000 VCFG NSC M01/M02 Q1027=
EGGD 211020Z AUTO 06007KT 6000 NCD M02/M02 Q1027=
EGGD 210950Z 06005KT 5000 VCFG NSC M03/M03 Q1027=
EGGD 210920Z 07005KT 2100 0700E R27/0450 PRFG NSC M04/M04 Q1027=
EGGD 210850Z 07005KT 0350 R27/0275 FZFG NSC M04/M05 Q1027=
EGGD 210820Z AUTO 06005KT 0150 R27/0275 FZFG VV/// M04/M05 Q1027=
EGGD 210750Z 06006KT 0350 R09/P1500 FZFG NSC M04/M05 Q1027=
EGGD 210720Z 05005KT 5000 1400NE R09/P1500 BCFG NSC M04/M04 Q1027=
EGGD 210650Z 06005KT CAVOK M05/M06 Q1027=
EGGD 210620Z 06005KT 9999 NSC M05/M05 Q1027=
EGGD 210550Z AUTO 05004KT 7000 NCD M04/M05 Q1027=
EGGD 210520Z AUTO 06004KT 5000 BR NCD M05/M05 Q1027=
EGGD 210450Z AUTO 07004KT 8000 NCD M04/M04 Q1028=
EGGD 210420Z AUTO 05003KT 4700 BR NCD M04/M04 Q1028=
EGGD 210350Z AUTO 05004KT 9999 NCD M03/M04 Q1028=
EGGD 210320Z AUTO 08005KT 9999 NCD M04/M05 Q1028=
EGGD 210250Z AUTO 07003KT 7000 NCD M04/M05 Q1029=
EGGD 210220Z AUTO 07004KT 9999 NCD M03/M04 Q1029=
EGGD 210150Z AUTO 07005KT 9999 NCD M03/M04 Q1029=
EGGD 210120Z AUTO 09006KT 9999 NCD M04/M05 Q1029=
EGGD 210050Z AUTO 08006KT 9999 NCD M04/M05 Q1029=
EGGD 210020Z AUTO 08005KT 9999 NCD M04/M05 Q1029=
EGGD 202350Z AUTO 08005KT 9999 NCD M03/M04 Q1029=
EGGD 202320Z AUTO 07008KT 9999 NCD M02/M03 Q1029=
EGGD 202250Z AUTO 07011KT 9999 NCD M01/M03 Q1029=
EGGD 202220Z AUTO 06012KT 9999 NCD M01/M03 Q1029=
EGGD 202150Z AUTO 06011KT 9999 NCD M00/M03 Q1029=
EGGD 202120Z AUTO 06011KT 9999 NCD M00/M02 Q1029=
EGGD 202050Z AUTO 06012KT 9999 NCD 00/M02 Q1029=
EGGD 202020Z AUTO 06012KT 9999 NCD 00/M02 Q1029=
EGGD 201950Z AUTO 06012KT 9999 NCD 00/M02 Q1030=
EGGD 201920Z AUTO 06010KT 9999 NCD 00/M02 Q1030=
EGGD 201850Z AUTO 08008KT 9999 NCD 01/M03 Q1030=
EGGD 201820Z AUTO 05010KT 9999 NCD 01/M02 Q1030=
EGGD 201750Z AUTO 06011KT 9999 NCD 01/M02 Q1030=
EGGD 201720Z AUTO 05010KT 9999 NCD 02/M02 Q1030=